Flight Track Log - Related Links

Times and Time Zones

All times are in EDT time to prevent confusion due to time zone crossing. See the WEW1540 flight status page for this flight to view local times or setup timezone preferences in your user account.

Time Position Orientation Groundspeed Altitude Reporting Facility
EDT Latitude Longitude Course Direction KTS MPH feet Rate Location/Type
Mon 07:12:00 PM 51.1021 -108.6642 142° Southeast  Level Estimated
Mon 07:13:00 PM 51.0673 -108.6216 142° Southeast  Level Estimated
Mon 07:14:00 PM 51.0326 -108.5790 142° Southeast  Level Estimated
Mon 07:15:00 PM 50.9979 -108.5365 142° Southeast  Level Estimated
Mon 07:16:00 PM 50.9631 -108.4941 142° Southeast  Level Estimated
Mon 07:17:00 PM 50.9283 -108.4517 142° Southeast  Level Estimated
Mon 07:18:00 PM 50.8935 -108.4094 143° Southeast  Level Estimated
Mon 07:19:00 PM 50.8587 -108.3671 143° Southeast  Level Estimated
Mon 07:20:00 PM 50.8239 -108.3250 143° Southeast  Level Estimated
Mon 07:21:00 PM 50.7890 -108.2828 143° Southeast  Level Estimated
Mon 07:22:00 PM 50.7542 -108.2408 143° Southeast  Level Estimated
Mon 07:23:00 PM 50.7193 -108.1988 143° Southeast  Level Estimated
Mon 07:24:00 PM 50.6844 -108.1568 143° Southeast  Level Estimated
Mon 07:25:00 PM 50.6495 -108.1150 143° Southeast  Level Estimated
Mon 07:26:00 PM 50.6146 -108.0732 143° Southeast  Level Estimated
Mon 07:27:00 PM 50.5797 -108.0314 143° Southeast  Level Estimated
Mon 07:28:00 PM 50.5447 -107.9897 143° Southeast  Level Estimated
Mon 07:29:00 PM 50.5098 -107.9481 143° Southeast  Level Estimated
Mon 07:30:00 PM 50.4748 -107.9065 143° Southeast  Level Estimated
Mon 07:31:00 PM 50.4398 -107.8650 143° Southeast  Level Estimated
Mon 07:32:00 PM 50.4048 -107.8236 143° Southeast  Level Estimated
Mon 07:33:00 PM 50.3698 -107.7822 143° Southeast  Level Estimated
Mon 07:34:00 PM 50.3347 -107.7409 143° Southeast  Level Estimated
Mon 07:35:00 PM 50.2997 -107.6996 143° Southeast  Level Estimated
Mon 07:36:00 PM 50.2919 -107.6906 143° Southeast  Level Estimated
Mon 07:37:00 PM 50.2919 -107.6906 33° Northeast  Level Estimated
Mon 07:38:00 PM 50.2919 -107.6906 33° Northeast  Level Estimated
Mon 07:39:00 PM 50.2919 -107.6906 33° Northeast  Level Estimated
Mon 07:40:00 PM 50.2919 -107.6906 33° Northeast  Level Estimated
Mon 07:41:00 PM 50.2919 -107.6906 33° Northeast  Level Estimated
Mon 07:42:00 PM 50.2919 -107.6906 33° Northeast  Level Estimated
Mon 07:43:00 PM 50.2919 -107.6906 33° Northeast  Level Estimated
Mon 07:44:00 PM 50.2919 -107.6906 33° Northeast  Level Estimated
Mon 07:45:00 PM 50.2919 -107.6906 33° Northeast  Level Estimated
Mon 07:46:00 PM 50.2919 -107.6906 33° Northeast  Level Estimated

Login

Don't have an account? Register now (free) for customized features, flight alerts, and more!